Time;durP1;ratioP1;P1;durP2;ratioP2;P2;SDS_P1;SDS_P2;PMS_P1;PMS_P2;Temp;Humidity;BMP_temperature;BMP_pressure;BME280_temperature;BME280_humidity;BME280_pressure;Samples;Min_cycle;Max_cycle;Signal;HPM_P1;HPM_P2
2023/06/09 07:40:36;;;;;;;6.10;5.32;;;23.40;24.10;;;;;;5561287;23;20226;-96
2023/06/09 07:43:05;;;;;;;6.68;5.82;;;23.50;24.10;;;;;;4990957;28;20192;-96
2023/06/09 07:45:32;;;;;;;8.15;5.90;;;23.50;22.80;;;;;;4989963;28;20256;-96
2023/06/09 07:47:59;;;;;;;6.90;5.50;;;23.50;18.70;;;;;;4994730;28;20223;-96
2023/06/09 07:50:26;;;;;;;8.43;5.20;;;23.60;14.90;;;;;;4994192;28;20238;-96
2023/06/09 07:52:53;;;;;;;8.35;5.38;;;23.60;14.60;;;;;;4999478;28;20195;-96
2023/06/09 07:55:20;;;;;;;7.68;5.88;;;23.80;13.40;;;;;;5032632;23;20251;-96
2023/06/09 07:57:49;;;;;;;6.15;5.40;;;23.90;13.50;;;;;;5005513;28;20270;-96
2023/06/09 08:00:18;;;;;;;6.70;5.38;;;24.00;14.30;;;;;;5009294;28;20226;-96
2023/06/09 08:02:45;;;;;;;7.68;5.80;;;24.10;17.10;;;;;;5017266;28;20235;-96
2023/06/09 08:05:12;;;;;;;6.75;5.35;;;24.20;13.40;;;;;;5011011;28;20218;-96
2023/06/09 08:07:39;;;;;;;6.15;5.03;;;24.30;12.80;;;;;;5005511;28;20190;-95
2023/06/09 08:10:07;;;;;;;6.50;5.60;;;24.30;17.10;;;;;;4999863;28;20218;-96
2023/06/09 08:12:35;;;;;;;7.97;5.72;;;24.40;19.10;;;;;;4998867;28;20205;-96
2023/06/09 08:15:03;;;;;;;8.60;5.80;;;24.30;19.90;;;;;;5000841;28;20263;-96
2023/06/09 08:17:30;;;;;;;9.80;6.25;;;24.30;15.00;;;;;;5005263;28;20195;-96
2023/06/09 08:19:57;;;;;;;7.25;5.68;;;24.20;15.40;;;;;;5003907;28;20194;-96
2023/06/09 08:22:24;;;;;;;7.32;5.68;;;24.20;15.40;;;;;;5001221;28;20203;-96
2023/06/09 08:24:51;;;;;;;7.90;5.75;;;24.20;14.10;;;;;;4998133;28;20247;-96
2023/06/09 08:27:17;;;;;;;10.88;5.68;;;24.20;16.40;;;;;;4998134;28;20636;-96
2023/06/09 08:29:44;;;;;;;7.80;5.63;;;24.30;17.10;;;;;;4999393;28;20260;-96
2023/06/09 08:32:13;;;;;;;7.55;6.15;;;24.30;11.90;;;;;;5005074;28;20219;-96
2023/06/09 08:34:40;;;;;;;7.20;5.85;;;24.40;16.50;;;;;;5002981;28;20203;-96
2023/06/09 08:37:10;;;;;;;7.32;5.82;;;24.50;15.00;;;;;;5001341;28;20203;-96
2023/06/09 08:39:37;;;;;;;6.93;5.80;;;24.60;21.50;;;;;;5003756;28;20243;-96
2023/06/09 08:42:11;;;;;;;6.68;5.68;;;24.90;17.60;;;;;;5006962;28;20203;-96
2023/06/09 08:44:40;;;;;;;8.25;5.57;;;25.20;18.40;;;;;;5010479;28;20182;-96
2023/06/09 08:47:09;;;;;;;9.00;6.32;;;25.40;16.90;;;;;;5008364;28;20197;-96
2023/06/09 08:49:38;;;;;;;6.38;5.53;;;25.60;13.10;;;;;;5004236;28;20221;-96
2023/06/09 08:52:05;;;;;;;6.82;6.10;;;25.70;10.80;;;;;;5002699;28;20207;-96
2023/06/09 08:54:32;;;;;;;8.10;5.63;;;25.90;11.00;;;;;;5000781;28;20195;-96
2023/06/09 08:57:00;;;;;;;6.28;5.68;;;26.00;13.30;;;;;;5001007;28;20739;-96
2023/06/09 08:59:33;;;;;;;7.80;5.78;;;26.20;14.80;;;;;;4999186;28;20229;-96
2023/06/09 09:02:01;;;;;;;7.18;5.80;;;26.30;15.70;;;;;;4980979;28;20200;-96
2023/06/09 09:04:28;;;;;;;8.98;6.32;;;26.30;14.50;;;;;;5004398;28;20191;-96
2023/06/09 09:06:56;;;;;;;7.20;6.10;;;26.20;12.50;;;;;;5003357;28;20195;-96
2023/06/09 09:09:23;;;;;;;8.10;6.38;;;26.20;11.10;;;;;;5007774;28;20183;-96
2023/06/09 09:11:53;;;;;;;8.25;5.85;;;26.20;10.90;;;;;;5007754;28;20209;-96
2023/06/09 09:14:20;;;;;;;10.02;6.68;;;26.20;11.60;;;;;;5013586;28;20230;-96
2023/06/09 09:16:47;;;;;;;8.15;5.97;;;26.20;4.90;;;;;;5011498;28;20222;-96
2023/06/09 09:19:14;;;;;;;11.27;6.38;;;26.20;8.20;;;;;;5001595;28;20221;-96
2023/06/09 09:21:41;;;;;;;7.60;5.82;;;26.40;7.00;;;;;;5002950;28;20205;-96
2023/06/09 09:24:12;;;;;;;7.28;5.70;;;26.50;7.80;;;;;;5001633;28;20307;-96
2023/06/09 09:26:40;;;;;;;6.93;5.80;;;26.70;9.90;;;;;;4994967;28;20715;-96
2023/06/09 09:29:07;;;;;;;7.68;5.80;;;27.20;14.20;;;;;;5003555;28;20565;-96
2023/06/09 09:31:36;;;;;;;7.40;6.10;;;27.70;12.60;;;;;;5000266;28;20199;-96
2023/06/09 09:34:03;;;;;;;10.77;6.30;;;28.00;11.60;;;;;;5000872;28;20281;-96
2023/06/09 09:36:30;;;;;;;7.55;6.15;;;28.30;10.20;;;;;;5001017;28;20195;-96
2023/06/09 09:38:58;;;;;;;6.35;5.32;;;28.60;10.50;;;;;;5008174;28;20305;-96
2023/06/09 09:41:26;;;;;;;7.57;5.63;;;28.90;6.20;;;;;;5009441;28;20538;-96
2023/06/09 09:43:57;;;;;;;10.57;5.53;;;28.90;1.00;;;;;;5013191;28;20623;-96
2023/06/09 09:48:54;;;;;;;8.20;5.70;;;28.80;1.40;;;;;;4993859;28;20196;-96
2023/06/09 09:53:58;;;;;;;11.13;6.07;;;28.60;1.00;;;;;;5243458;23;20280;-96
2023/06/09 09:56:27;;;;;;;8.38;5.72;;;28.50;1.00;;;;;;5014378;28;20197;-96
2023/06/09 09:58:55;;;;;;;7.07;5.43;;;28.30;1.00;;;;;;5286688;23;20250;-96
2023/06/09 10:03:58;;;;;;;63.05;8.65;;;27.80;11.60;;;;;;5781700;23;20218;-96
2023/06/09 10:06:29;;;;;;;9.38;6.00;;;27.70;1.00;;;;;;5296035;23;20247;-96
2023/06/09 10:08:57;;;;;;;8.07;5.63;;;27.60;1.00;;;;;;4999672;28;20222;-96
2023/06/09 10:11:31;;;;;;;6.93;5.95;;;27.80;1.00;;;;;;4994491;28;20206;-96
2023/06/09 10:13:59;;;;;;;7.25;5.55;;;28.10;1.00;;;;;;4983545;28;20205;-96
2023/06/09 10:16:27;;;;;;;9.07;5.18;;;28.40;1.00;;;;;;4997063;28;20281;-96
2023/06/09 10:18:54;;;;;;;6.00;4.68;;;28.60;1.00;;;;;;5002112;28;20259;-96
2023/06/09 10:21:22;;;;;;;5.60;5.00;;;28.70;10.30;;;;;;5013384;28;20205;-96
2023/06/09 10:23:49;;;;;;;9.40;5.05;;;28.80;1.00;;;;;;5467232;23;21155;-91
2023/06/09 10:28:53;;;;;;;7.85;4.93;;;29.00;1.00;;;;;;5968619;23;20182;-94
2023/06/09 10:31:22;;;;;;;5.88;4.90;;;28.90;1.00;;;;;;5399447;23;20222;-96
2023/06/09 11:10:27;;;;;;;8.65;5.45;;;27.60;1.00;;;;;;4972790;28;20206;-96
2023/06/09 11:12:55;;;;;;;8.75;5.82;;;27.40;1.00;;;;;;4972535;28;20569;-96
2023/06/09 11:15:23;;;;;;;8.45;5.38;;;27.50;1.00;;;;;;4965449;28;20662;-96
2023/06/09 11:17:52;;;;;;;6.32;5.43;;;27.70;1.00;;;;;;4963174;28;20206;-96
2023/06/09 11:20:20;;;;;;;6.03;5.03;;;27.90;1.00;;;;;;4961419;28;20307;-96
2023/06/09 11:23:06;;;;;;;5.93;5.00;;;28.20;1.00;;;;;;4981786;28;20227;-96
2023/06/09 11:25:40;;;;;;;7.97;4.75;;;28.40;1.00;;;;;;4975878;28;20206;-96
2023/06/09 11:28:21;;;;;;;6.80;4.57;;;28.50;1.00;;;;;;4977372;28;20193;-96
2023/06/09 11:31:03;;;;;;;6.63;4.45;;;28.50;1.00;;;;;;4967766;28;20207;-96
2023/06/09 11:33:47;;;;;;;6.63;4.47;;;28.60;1.00;;;;;;4971147;28;20210;-96
2023/06/09 11:36:22;;;;;;;6.28;4.78;;;28.70;1.00;;;;;;4961885;28;20287;-96
2023/06/09 11:38:50;;;;;;;5.20;4.47;;;28.90;1.00;;;;;;4984653;28;20223;-96
2023/06/09 11:41:24;;;;;;;4.65;4.25;;;29.00;1.00;;;;;;4991398;28;20202;-96
2023/06/09 11:43:56;;;;;;;5.80;4.38;;;29.00;1.00;;;;;;4973869;28;20215;-96
2023/06/09 11:46:23;;;;;;;8.68;4.45;;;28.90;1.00;;;;;;4964703;29;20232;-96
2023/06/09 11:49:01;;;;;;;5.93;4.45;;;29.00;1.00;;;;;;4969010;29;20196;-96
2023/06/09 11:51:28;;;;;;;8.23;4.55;;;29.00;1.00;;;;;;4963979;29;20207;-96
2023/06/09 11:53:56;;;;;;;5.88;4.40;;;29.00;1.00;;;;;;4944969;29;20196;-96
2023/06/09 11:56:25;;;;;;;8.35;4.15;;;29.00;1.00;;;;;;4961191;28;20196;-96
2023/06/09 11:58:55;;;;;;;5.20;4.00;;;29.10;1.00;;;;;;4965693;29;20310;-96
2023/06/09 12:01:31;;;;;;;6.53;4.22;;;29.10;1.00;;;;;;4959896;28;20721;-96
2023/06/09 12:03:58;;;;;;;6.07;4.32;;;29.20;1.00;;;;;;4959825;29;20658;-96
2023/06/09 12:06:25;;;;;;;5.20;4.20;;;29.30;1.00;;;;;;4959095;29;20216;-96
2023/06/09 12:08:52;;;;;;;7.47;3.75;;;29.50;1.00;;;;;;4963786;28;20732;-96
2023/06/09 12:11:19;;;;;;;7.90;4.00;;;29.60;1.00;;;;;;4966659;28;20197;-96
2023/06/09 12:13:48;;;;;;;5.85;4.20;;;29.70;1.00;;;;;;4960256;28;20235;-96
2023/06/09 12:16:15;;;;;;;8.20;4.18;;;29.70;1.00;;;;;;4959771;28;20202;-96
2023/06/09 12:18:42;;;;;;;8.02;4.30;;;29.80;1.00;;;;;;4962749;28;20192;-96
2023/06/09 12:21:13;;;;;;;5.70;4.05;;;29.90;1.00;;;;;;4963617;29;20287;-96
2023/06/09 12:23:40;;;;;;;6.32;4.07;;;29.90;1.00;;;;;;4964188;29;20192;-96
2023/06/09 12:26:08;;;;;;;5.15;3.90;;;30.00;1.00;;;;;;4968889;28;20196;-96
2023/06/09 12:28:35;;;;;;;5.35;4.07;;;30.10;1.00;;;;;;4967593;28;20203;-96
2023/06/09 12:31:12;;;;;;;7.43;4.20;;;30.10;1.00;;;;;;4967608;28;20251;-96
2023/06/09 12:33:46;;;;;;;4.28;3.50;;;30.10;1.00;;;;;;4965528;29;20290;-96
2023/06/09 12:36:17;;;;;;;5.18;4.15;;;30.10;1.00;;;;;;4974523;28;20185;-96
2023/06/09 12:38:44;;;;;;;4.75;4.13;;;30.10;1.00;;;;;;5237496;23;20301;-96
2023/06/09 12:41:13;;;;;;;4.72;4.32;;;30.10;1.00;;;;;;5004619;28;20187;-96
2023/06/09 12:43:49;;;;;;;4.70;4.20;;;30.20;1.00;;;;;;4996092;28;20194;-96
2023/06/09 12:46:21;;;;;;;5.85;3.70;;;30.10;1.00;;;;;;4996803;28;20260;-96
2023/06/09 12:49:01;;;;;;;4.82;3.88;;;30.20;1.00;;;;;;5001027;28;20205;-96
2023/06/09 12:51:28;;;;;;;4.18;3.78;;;30.30;1.00;;;;;;5003025;28;20207;-96
2023/06/09 12:53:55;;;;;;;6.25;4.10;;;30.40;1.00;;;;;;4996446;28;20290;-96
2023/06/09 12:56:22;;;;;;;6.55;4.13;;;30.40;1.00;;;;;;4998700;28;20195;-95
2023/06/09 12:58:53;;;;;;;6.38;4.18;;;30.50;1.00;;;;;;5081953;23;20238;-96
2023/06/09 13:01:23;;;;;;;5.65;4.05;;;30.50;1.00;;;;;;4998484;28;20191;-96
2023/06/09 13:03:51;;;;;;;4.93;4.20;;;30.50;1.00;;;;;;4992263;28;20255;-96
2023/06/09 13:06:18;;;;;;;5.60;4.40;;;30.60;1.00;;;;;;4994215;28;20221;-96
2023/06/09 13:08:45;;;;;;;4.18;3.85;;;30.70;1.00;;;;;;4989861;28;20187;-96
2023/06/09 13:11:12;;;;;;;5.60;3.83;;;30.80;1.00;;;;;;5244771;23;20229;-96
2023/06/09 13:13:40;;;;;;;5.97;3.95;;;30.80;1.00;;;;;;5015470;28;20215;-96
2023/06/09 13:16:08;;;;;;;5.05;4.30;;;30.80;1.00;;;;;;5017817;28;20210;-96
2023/06/09 13:23:46;;;;;;;4.90;3.85;;;30.80;1.00;;;;;;5270169;23;20238;-96
2023/06/09 13:26:13;;;;;;;4.55;4.15;;;30.70;1.00;;;;;;5101914;23;20241;-96
2023/06/09 13:28:40;;;;;;;5.93;3.88;;;30.60;1.00;;;;;;4993174;28;20203;-96
2023/06/09 13:31:07;;;;;;;11.98;4.22;;;30.40;1.00;;;;;;5699104;23;22479;-95
2023/06/09 13:33:36;;;;;;;11.00;4.07;;;30.20;1.00;;;;;;5723049;23;20310;-96
2023/06/09 13:36:03;;;;;;;4.90;3.95;;;30.10;1.00;;;;;;5283015;23;20964;-96
2023/06/09 14:01:44;;;;;;;8.50;4.10;;;32.90;1.00;;;;;;5786091;23;20260;-96
2023/06/09 14:04:11;;;;;;;36.92;5.63;;;33.00;1.00;;;;;;5009464;28;20188;-96
2023/06/09 14:06:38;;;;;;;5.55;3.95;;;33.00;1.00;;;;;;5016582;28;20234;-96
2023/06/09 14:09:07;;;;;;;4.47;4.07;;;32.80;1.00;;;;;;5014890;28;20194;-96
2023/06/09 14:11:34;;;;;;;7.63;4.35;;;32.60;1.00;;;;;;5227823;23;20952;-96
2023/06/09 14:14:01;;;;;;;4.40;4.00;;;32.40;1.00;;;;;;4999989;28;20198;-96
2023/06/09 14:16:28;;;;;;;4.70;4.03;;;32.20;1.00;;;;;;5330397;23;20233;-96
2023/06/09 14:18:56;;;;;;;5.43;4.93;;;31.90;1.00;;;;;;4994288;28;20200;-96
2023/06/09 14:21:23;;;;;;;6.00;4.35;;;31.50;1.00;;;;;;4995157;28;20219;-96
2023/06/09 14:23:50;;;;;;;6.72;4.82;;;31.10;1.00;;;;;;4996375;28;20223;-96
2023/06/09 14:26:17;;;;;;;6.88;4.43;;;30.90;1.00;;;;;;4995358;28;20230;-96
2023/06/09 14:28:44;;;;;;;5.25;4.28;;;30.70;1.00;;;;;;4998749;28;20222;-96
2023/06/09 14:31:11;;;;;;;6.70;4.55;;;30.50;1.00;;;;;;5169305;23;20218;-96
2023/06/09 14:36:10;;;;;;;5.13;4.60;;;30.30;1.00;;;;;;4995886;28;20208;-97
2023/06/09 14:38:36;;;;;;;4.25;3.85;;;30.20;1.00;;;;;;4999885;28;20716;-96
2023/06/09 14:41:03;;;;;;;4.78;4.13;;;30.00;1.00;;;;;;5000446;28;20229;-96
2023/06/09 14:46:05;;;;;;;4.70;4.28;;;29.80;1.00;;;;;;5097391;23;20219;-96
2023/06/09 14:48:32;;;;;;;5.07;4.38;;;29.70;1.00;;;;;;5501175;23;20210;-96
2023/06/09 16:13:47;;;;;;;4.65;3.75;;;30.80;1.00;;;;;;6006262;23;20208;-97
2023/06/09 16:16:14;;;;;;;7.53;3.75;;;30.50;1.00;;;;;;5013460;28;20271;-96
2023/06/09 16:18:41;;;;;;;10.05;4.15;;;30.20;1.00;;;;;;5014504;28;20194;-96
2023/06/09 16:21:10;;;;;;;10.45;3.95;;;29.90;1.00;;;;;;5012628;28;20225;-96
2023/06/09 16:23:37;;;;;;;6.88;3.50;;;29.70;1.00;;;;;;5012350;28;20198;-96
2023/06/09 16:26:04;;;;;;;6.43;3.60;;;29.50;1.00;;;;;;5012748;28;20290;-96
2023/06/09 16:31:05;;;;;;;10.57;6.72;;;29.30;1.00;;;;;;4987925;28;20218;-96
2023/06/09 16:33:35;;;;;;;7.68;4.18;;;29.30;1.00;;;;;;4987733;28;20270;-96
2023/06/09 16:36:02;;;;;;;9.10;4.30;;;29.20;1.00;;;;;;4996817;28;20199;-96
2023/06/09 16:40:56;;;;;;;8.32;4.43;;;29.10;1.00;;;;;;5009868;28;20227;-96
2023/06/09 16:43:24;;;;;;;7.95;5.82;;;29.20;1.00;;;;;;5012533;28;20246;-96
2023/06/09 16:45:50;;;;;;;6.03;4.70;;;29.30;1.00;;;;;;5012048;28;20627;-96
2023/06/09 16:48:19;;;;;;;6.93;4.40;;;29.50;1.00;;;;;;5009984;28;20618;-96
2023/06/09 16:50:45;;;;;;;5.38;4.18;;;29.60;1.00;;;;;;5010160;28;20195;-96
2023/06/09 16:53:12;;;;;;;8.48;4.70;;;29.70;1.00;;;;;;5003183;28;20289;-96
2023/06/09 17:11:00;;;;;;;7.30;4.35;;;29.70;1.00;;;;;;5126916;23;20215;-96
2023/06/09 17:13:27;;;;;;;7.35;4.18;;;29.50;1.00;;;;;;4999229;28;20221;-96
2023/06/09 17:15:54;;;;;;;9.13;4.40;;;29.00;1.00;;;;;;4999193;28;20279;-96
2023/06/09 17:18:21;;;;;;;6.90;4.50;;;28.50;1.00;;;;;;4998093;28;20680;-96
2023/06/09 17:20:48;;;;;;;11.25;4.57;;;28.00;1.00;;;;;;5000956;28;20235;-96
2023/06/09 17:23:15;;;;;;;6.68;4.10;;;27.70;1.00;;;;;;5001434;28;20267;-96
2023/06/09 17:25:42;;;;;;;7.00;4.57;;;27.50;1.00;;;;;;4997928;28;20462;-96
2023/06/09 17:56:31;;;;;;;7.57;4.80;;;25.90;1.00;;;;;;4973899;28;20208;-96
2023/06/09 17:58:58;;;;;;;9.55;4.72;;;25.70;1.00;;;;;;4974678;29;20228;-96
2023/06/09 18:01:25;;;;;;;262.20;15.35;;;25.60;1.00;;;;;;4973295;28;20223;-96
2023/06/09 18:03:53;;;;;;;20.75;5.57;;;25.40;1.00;;;;;;4977231;28;20231;-96
2023/06/09 18:06:20;;;;;;;9.68;4.80;;;25.30;1.00;;;;;;4967581;28;20204;-96
2023/06/09 18:08:47;;;;;;;8.35;4.60;;;25.30;1.00;;;;;;4992150;28;20256;-96
2023/06/09 19:39:21;;;;;;;12.05;6.18;;;22.30;99.90;;;;;;4956011;29;20224;-94
2023/06/09 19:41:48;;;;;;;7.45;5.95;;;22.30;99.90;;;;;;4958616;28;20210;-93
2023/06/09 19:44:15;;;;;;;8.93;6.45;;;22.20;99.90;;;;;;4956899;29;20435;-92
2023/06/09 19:46:41;;;;;;;7.95;5.90;;;22.30;99.90;;;;;;4957413;29;20215;-94
2023/06/09 19:49:11;;;;;;;10.48;6.28;;;22.30;99.90;;;;;;4957682;28;20597;-96
2023/06/09 19:51:38;;;;;;;8.40;6.22;;;22.20;99.90;;;;;;4956905;28;20200;-96
2023/06/09 19:54:05;;;;;;;6.50;5.90;;;22.20;99.90;;;;;;4953603;29;20189;-96
2023/06/09 19:56:34;;;;;;;8.98;6.25;;;22.20;99.90;;;;;;4961336;28;20196;-96
2023/06/09 20:01:36;;;;;;;8.20;6.63;;;22.20;99.90;;;;;;5076118;23;20222;-96
2023/06/09 20:04:03;;;;;;;8.73;6.68;;;22.10;99.90;;;;;;4998586;28;20223;-96
2023/06/09 20:06:30;;;;;;;8.50;6.55;;;22.10;99.90;;;;;;4992031;28;20204;-96
2023/06/09 20:08:57;;;;;;;8.93;6.60;;;22.00;99.90;;;;;;4976989;28;20194;-96
2023/06/09 20:11:25;;;;;;;9.38;7.05;;;22.00;99.90;;;;;;4978744;28;20290;-96
2023/06/09 20:13:53;;;;;;;8.30;7.00;;;21.90;99.90;;;;;;4977215;28;20222;-96
2023/06/09 20:16:22;;;;;;;8.35;7.07;;;21.90;99.90;;;;;;4986754;28;20196;-96
2023/06/09 20:18:49;;;;;;;11.93;7.50;;;21.90;99.90;;;;;;4983929;28;20199;-96
2023/06/09 20:21:17;;;;;;;12.27;7.80;;;21.80;99.90;;;;;;4985141;28;20250;-96
2023/06/09 20:23:43;;;;;;;10.13;6.95;;;21.80;99.90;;;;;;4993215;28;20199;-96
2023/06/09 20:26:11;;;;;;;13.07;7.75;;;21.80;99.90;;;;;;4977199;28;20307;-95
2023/06/09 20:28:38;;;;;;;9.95;7.25;;;21.70;99.90;;;;;;4983017;28;20258;-96
2023/06/09 20:31:08;;;;;;;9.57;7.28;;;21.60;99.90;;;;;;4977358;28;20557;-94
2023/06/09 20:33:39;;;;;;;10.95;7.70;;;21.50;99.90;;;;;;4976935;28;20203;-93
2023/06/09 20:36:06;;;;;;;10.82;6.80;;;21.40;99.90;;;;;;4976402;28;20195;-95
2023/06/09 20:38:34;;;;;;;10.48;6.75;;;21.30;99.90;;;;;;4975750;28;20287;-93
2023/06/09 20:41:01;;;;;;;8.10;7.30;;;21.30;99.90;;;;;;4975702;28;20253;-94
2023/06/09 20:43:28;;;;;;;9.57;7.30;;;21.20;99.90;;;;;;4975280;28;20199;-95
2023/06/09 20:45:56;;;;;;;10.18;7.28;;;21.10;1.00;;;;;;4974957;28;20199;-94
2023/06/09 20:48:24;;;;;;;8.55;7.65;;;21.00;1.00;;;;;;4977785;28;20250;-94
2023/06/09 20:50:51;;;;;;;10.15;7.60;;;20.90;1.00;;;;;;4979953;28;20250;-95
2023/06/09 20:53:18;;;;;;;8.23;7.40;;;20.80;1.00;;;;;;4956717;29;20200;-94
2023/06/09 20:55:45;;;;;;;11.38;7.30;;;20.60;1.00;;;;;;4973380;28;20200;-93
2023/06/09 20:58:11;;;;;;;9.68;6.97;;;20.50;1.00;;;;;;4963695;28;20203;-93
2023/06/09 21:00:39;;;;;;;9.75;7.65;;;20.40;1.00;;;;;;4975395;28;20253;-94
2023/06/09 21:03:05;;;;;;;12.77;7.50;;;20.30;1.00;;;;;;4959374;28;20200;-95
2023/06/09 21:05:34;;;;;;;11.18;8.23;;;20.20;1.00;;;;;;4975434;28;20196;-94
2023/06/09 21:08:00;;;;;;;11.05;7.68;;;20.20;1.00;;;;;;4975464;28;20191;-94
2023/06/09 21:10:27;;;;;;;9.45;7.78;;;20.10;1.00;;;;;;4975968;28;20294;-93
2023/06/09 21:12:54;;;;;;;10.02;7.65;;;20.00;8.10;;;;;;4975513;28;20195;-94
2023/06/09 21:15:21;;;;;;;12.15;8.68;;;19.90;43.50;;;;;;4975302;28;20591;-92
2023/06/09 21:17:47;;;;;;;10.23;8.77;;;19.90;90.60;;;;;;4975530;28;20198;-93
2023/06/09 21:20:14;;;;;;;10.80;9.30;;;19.80;99.90;;;;;;4975633;28;20280;-92
2023/06/09 21:22:44;;;;;;;10.43;9.20;;;19.80;99.90;;;;;;4975660;28;20203;-94
2023/06/09 21:25:13;;;;;;;12.23;8.68;;;19.70;99.90;;;;;;4975586;28;20208;-94
2023/06/09 21:27:40;;;;;;;10.98;8.75;;;19.70;99.90;;;;;;4975263;28;20199;-95
2023/06/09 21:30:08;;;;;;;10.20;9.10;;;19.60;99.90;;;;;;4975324;28;20198;-93
2023/06/09 21:32:36;;;;;;;9.48;8.35;;;19.60;99.90;;;;;;4975617;28;20215;-93
2023/06/09 21:35:04;;;;;;;12.65;8.27;;;19.60;99.90;;;;;;4975072;28;20206;-95
